Time;durP1;ratioP1;P1;durP2;ratioP2;P2;SDS_P1;SDS_P2;PMS_P1;PMS_P2;Temp;Humidity;BMP_temperature;BMP_pressure;BME280_temperature;BME280_humidity;BME280_pressure;Samples;Min_cycle;Max_cycle;Signal;HPM_P1;HPM_P2
2022/04/22 00:01:35;;;;;;;1.85;1.33;;;21.80;74.20;;;;;;5105292;28;20177;-66
2022/04/22 00:04:03;;;;;;;8.05;1.27;;;21.80;74.30;;;;;;5104779;28;20051;-65
2022/04/22 00:06:30;;;;;;;4.13;2.00;;;21.70;74.30;;;;;;5102161;28;20080;-65
2022/04/22 00:08:56;;;;;;;2.28;1.20;;;21.70;74.30;;;;;;5107137;28;20036;-71
2022/04/22 00:11:32;;;;;;;2.33;1.33;;;21.80;74.40;;;;;;5089679;28;20027;-67
2022/04/22 00:14:01;;;;;;;4.75;1.33;;;21.70;74.40;;;;;;5102620;28;20027;-76
2022/04/22 00:16:30;;;;;;;5.13;1.08;;;21.80;74.40;;;;;;5107702;28;20047;-66
2022/04/22 00:18:57;;;;;;;5.65;1.63;;;21.80;74.50;;;;;;5102377;28;20078;-65
2022/04/22 00:21:23;;;;;;;2.22;0.93;;;21.70;74.60;;;;;;5102762;28;20122;-70
2022/04/22 00:23:51;;;;;;;3.65;0.90;;;21.70;74.70;;;;;;5106645;28;20035;-72
2022/04/22 00:26:18;;;;;;;1.30;0.63;;;21.70;74.70;;;;;;5103850;28;20036;-65
2022/04/22 00:28:45;;;;;;;2.85;0.70;;;21.80;74.70;;;;;;5104159;28;20016;-65
2022/04/22 00:31:12;;;;;;;1.85;1.38;;;21.70;74.60;;;;;;5102099;28;20048;-72
2022/04/22 00:33:38;;;;;;;2.03;1.05;;;21.80;74.50;;;;;;5110017;28;20031;-65
2022/04/22 00:36:05;;;;;;;2.30;0.95;;;21.70;74.40;;;;;;5107951;28;20023;-68
2022/04/22 00:38:31;;;;;;;4.55;1.02;;;21.70;74.30;;;;;;5110331;28;20020;-66
2022/04/22 00:40:59;;;;;;;4.63;1.20;;;21.70;74.20;;;;;;5108101;28;20020;-77
2022/04/22 00:43:26;;;;;;;2.65;0.90;;;21.70;74.20;;;;;;5102236;28;20463;-77
2022/04/22 00:45:55;;;;;;;2.60;1.30;;;21.70;74.10;;;;;;5110993;28;20526;-77
2022/04/22 00:48:22;;;;;;;2.15;1.10;;;21.70;74.10;;;;;;5106474;28;20497;-77
2022/04/22 00:50:49;;;;;;;3.67;1.10;;;21.70;74.00;;;;;;5102934;28;20097;-75
2022/04/22 00:53:16;;;;;;;2.22;1.02;;;21.70;74.00;;;;;;5104583;28;20077;-76
2022/04/22 00:55:44;;;;;;;12.15;1.48;;;21.70;74.00;;;;;;5106978;28;20082;-70
2022/04/22 00:58:12;;;;;;;3.92;2.70;;;21.70;74.10;;;;;;5109600;28;20016;-76
2022/04/22 01:00:41;;;;;;;7.15;5.22;;;21.70;74.30;;;;;;5106703;28;20118;-76
2022/04/22 01:03:08;;;;;;;8.07;5.75;;;21.80;74.50;;;;;;5110614;28;20376;-76
2022/04/22 01:11:05;;;;;;;7.88;3.28;;;21.70;74.70;;;;;;5106639;28;20397;-76
2022/04/22 01:13:32;;;;;;;4.90;1.95;;;21.60;74.50;;;;;;5085983;28;20162;-76
2022/04/22 01:15:58;;;;;;;4.22;1.40;;;21.70;74.50;;;;;;5107054;28;20020;-76
2022/04/22 01:18:25;;;;;;;1.88;1.45;;;21.60;74.40;;;;;;5106234;28;20096;-73
2022/04/22 01:20:51;;;;;;;2.80;1.20;;;21.60;74.30;;;;;;5106011;28;20556;-76
2022/04/22 01:23:18;;;;;;;4.40;1.25;;;21.60;74.40;;;;;;5102740;28;20015;-78
2022/04/22 01:25:44;;;;;;;4.20;1.63;;;21.70;74.40;;;;;;5103137;28;20024;-77
2022/04/22 01:28:11;;;;;;;3.25;1.50;;;21.60;74.30;;;;;;5106144;28;20023;-74
2022/04/22 01:30:38;;;;;;;1.15;1.05;;;21.60;74.20;;;;;;5107182;28;20047;-76
2022/04/22 01:33:04;;;;;;;6.93;1.92;;;21.60;74.10;;;;;;5108711;28;20012;-78
2022/04/22 01:35:31;;;;;;;5.45;1.05;;;21.60;74.00;;;;;;5106020;28;20023;-75
2022/04/22 01:37:57;;;;;;;18.20;2.42;;;21.60;73.80;;;;;;5107302;28;20019;-77
2022/04/22 01:40:24;;;;;;;6.78;1.30;;;21.50;73.60;;;;;;5102597;28;20106;-76
2022/04/22 01:42:50;;;;;;;6.85;1.60;;;21.50;73.60;;;;;;5103417;28;20015;-76
2022/04/22 01:45:17;;;;;;;9.65;1.58;;;21.50;73.60;;;;;;5110229;28;20015;-74
2022/04/22 01:47:43;;;;;;;8.13;1.52;;;21.50;73.90;;;;;;5106516;28;20016;-77
2022/04/22 01:50:10;;;;;;;2.60;0.63;;;21.50;73.80;;;;;;5110078;28;20390;-70
2022/04/22 01:52:39;;;;;;;9.00;1.15;;;21.50;73.50;;;;;;5106279;28;20103;-77
2022/04/22 01:55:06;;;;;;;4.80;0.68;;;21.50;73.20;;;;;;5107982;28;20996;-72
2022/04/22 01:57:32;;;;;;;1.63;0.93;;;21.50;73.00;;;;;;5094804;28;20016;-73
2022/04/22 02:00:00;;;;;;;2.67;0.63;;;21.40;72.70;;;;;;5094185;28;20081;-73
2022/04/22 02:02:26;;;;;;;3.22;1.00;;;21.40;72.50;;;;;;5099527;28;20047;-76
2022/04/22 02:04:53;;;;;;;2.05;1.10;;;21.40;72.30;;;;;;5104785;28;20023;-76
2022/04/22 02:07:19;;;;;;;3.10;0.98;;;21.40;72.20;;;;;;5106879;28;20024;-67
2022/04/22 02:09:46;;;;;;;2.08;1.02;;;21.40;72.10;;;;;;5097905;28;20043;-67
2022/04/22 02:12:13;;;;;;;13.82;9.70;;;21.40;72.00;;;;;;5105817;28;20107;-68
2022/04/22 02:14:39;;;;;;;15.00;8.75;;;21.40;71.90;;;;;;5104343;28;20110;-66
2022/04/22 02:17:06;;;;;;;7.85;5.38;;;21.40;71.90;;;;;;5108271;28;20020;-68
2022/04/22 02:19:32;;;;;;;4.68;2.80;;;21.40;71.80;;;;;;5103188;28;20478;-66
2022/04/22 02:21:59;;;;;;;4.85;2.17;;;21.40;72.20;;;;;;5105473;28;20028;-65
2022/04/22 02:24:25;;;;;;;4.45;1.08;;;21.40;71.10;;;;;;5106792;28;20102;-66
2022/04/22 02:29:40;;;;;;;5.53;1.75;;;21.40;70.80;;;;;;5104454;28;20058;-68
2022/04/22 02:32:06;;;;;;;3.53;1.02;;;21.40;70.80;;;;;;5102571;28;20035;-66
2022/04/22 02:34:33;;;;;;;4.57;0.80;;;21.40;70.90;;;;;;5088234;28;20027;-67
2022/04/22 02:36:59;;;;;;;1.00;0.80;;;21.40;71.00;;;;;;5103755;28;20168;-67
2022/04/22 02:39:26;;;;;;;2.47;1.00;;;21.30;71.00;;;;;;5103410;28;20391;-65
2022/04/22 02:47:22;;;;;;;6.80;1.17;;;21.30;71.20;;;;;;5096010;28;20099;-65
2022/04/22 02:49:48;;;;;;;10.65;1.70;;;21.30;71.20;;;;;;5106571;28;20044;-66
2022/04/22 02:52:15;;;;;;;5.47;1.42;;;21.30;71.20;;;;;;5105869;28;20473;-66
2022/04/22 02:54:42;;;;;;;2.58;0.85;;;21.30;71.30;;;;;;5108808;28;20572;-65
2022/04/22 02:57:10;;;;;;;3.47;1.05;;;21.30;71.30;;;;;;5102230;28;20032;-67
2022/04/22 02:59:41;;;;;;;2.92;1.25;;;21.20;71.20;;;;;;5106259;28;20596;-66
2022/04/22 03:02:08;;;;;;;2.03;0.75;;;21.20;71.40;;;;;;5104418;28;20027;-69
2022/04/22 03:04:35;;;;;;;2.50;1.00;;;21.20;71.50;;;;;;5106473;28;20023;-66
2022/04/22 03:07:01;;;;;;;5.28;1.20;;;21.20;71.50;;;;;;5105123;28;20043;-76
2022/04/22 03:09:27;;;;;;;4.80;1.13;;;21.20;71.60;;;;;;5078927;28;20130;-66
2022/04/22 03:11:54;;;;;;;6.03;1.10;;;21.20;71.50;;;;;;5107525;28;20031;-66
2022/04/22 03:14:21;;;;;;;8.63;1.13;;;21.20;71.30;;;;;;5105260;28;20091;-67
2022/04/22 03:16:47;;;;;;;3.05;1.10;;;21.20;71.20;;;;;;5102889;28;20028;-67
2022/04/22 03:19:14;;;;;;;3.30;0.77;;;21.20;71.10;;;;;;5103795;28;20451;-65
2022/04/22 03:21:41;;;;;;;2.45;0.77;;;21.20;71.20;;;;;;5104662;28;20050;-73
2022/04/22 03:24:07;;;;;;;3.35;1.65;;;21.20;71.40;;;;;;5098697;28;20024;-76
2022/04/22 03:26:34;;;;;;;5.00;0.90;;;21.20;71.50;;;;;;5104106;28;20103;-74
2022/04/22 03:29:00;;;;;;;6.47;1.00;;;21.20;71.50;;;;;;5105614;28;20107;-75
2022/04/22 03:31:27;;;;;;;5.57;0.80;;;21.20;71.50;;;;;;5105745;28;20020;-77
2022/04/22 03:33:56;;;;;;;5.25;0.90;;;21.20;71.40;;;;;;5102227;28;20460;-73
2022/04/22 03:36:22;;;;;;;4.15;1.45;;;21.20;71.20;;;;;;5103747;28;20016;-66
2022/04/22 03:38:49;;;;;;;1.30;0.80;;;21.20;71.10;;;;;;5108663;28;20020;-68
2022/04/22 03:41:15;;;;;;;5.85;1.08;;;21.20;71.00;;;;;;5100999;28;20055;-71
2022/04/22 03:43:42;;;;;;;2.25;0.82;;;21.20;70.70;;;;;;5106600;28;20042;-75
2022/04/22 03:46:08;;;;;;;6.05;1.63;;;21.20;70.40;;;;;;5103182;28;20023;-70
2022/04/22 03:48:35;;;;;;;7.65;0.80;;;21.20;70.10;;;;;;5089125;28;20084;-75
2022/04/22 03:51:02;;;;;;;6.38;1.42;;;21.20;69.70;;;;;;5083158;28;20510;-76
2022/04/22 03:53:34;;;;;;;6.63;1.20;;;21.20;69.50;;;;;;5085174;28;20475;-76
2022/04/22 03:58:54;;;;;;;4.20;1.98;;;21.10;68.30;;;;;;5107215;28;20042;-76
2022/04/22 04:01:20;;;;;;;5.97;1.10;;;21.10;68.00;;;;;;5100424;28;20080;-76
2022/04/22 04:03:47;;;;;;;7.90;0.93;;;21.10;67.70;;;;;;5093612;28;20088;-71
2022/04/22 04:06:13;;;;;;;3.35;1.00;;;21.10;67.80;;;;;;5103679;28;20039;-74
2022/04/22 04:08:39;;;;;;;4.72;1.30;;;21.10;67.90;;;;;;5103613;28;20065;-75
2022/04/22 04:16:26;;;;;;;10.25;3.05;;;21.00;67.60;;;;;;5105312;28;20103;-75
2022/04/22 04:23:14;;;;;;;24.85;7.13;;;21.00;67.40;;;;;;5102145;28;20449;-73
2022/04/22 04:24:24;;;;;;;18.83;8.30;;;20.90;68.00;;;;;;5104601;28;20100;-73
2022/04/22 04:26:52;;;;;;;19.02;13.27;;;20.90;68.30;;;;;;5102060;28;20379;-73
2022/04/22 04:29:19;;;;;;;19.05;10.85;;;20.90;68.00;;;;;;5102789;28;20031;-74
2022/04/22 04:31:47;;;;;;;12.18;6.10;;;20.90;67.80;;;;;;5106382;28;20035;-73
2022/04/22 04:34:13;;;;;;;8.93;4.25;;;20.90;67.60;;;;;;5105020;28;20030;-70
2022/04/22 04:36:40;;;;;;;14.18;5.03;;;20.90;67.50;;;;;;5099176;28;20102;-77
2022/04/22 04:39:12;;;;;;;14.10;4.93;;;20.90;67.40;;;;;;5102681;28;20039;-76
2022/04/22 04:41:39;;;;;;;9.63;5.13;;;20.90;67.40;;;;;;5099049;28;20039;-74
2022/04/22 04:44:06;;;;;;;16.83;8.65;;;20.90;67.30;;;;;;5105965;28;20493;-74
2022/04/22 04:46:33;;;;;;;17.48;5.68;;;21.00;67.10;;;;;;5102845;28;20024;-74
2022/04/22 04:49:01;;;;;;;7.18;3.78;;;20.90;67.00;;;;;;5103038;28;20102;-72
2022/04/22 04:51:28;;;;;;;5.10;1.95;;;21.00;67.10;;;;;;5101259;28;20028;-71
2022/04/22 04:53:54;;;;;;;2.88;2.13;;;20.90;67.00;;;;;;5105174;28;20081;-77
2022/04/22 04:56:21;;;;;;;9.00;1.75;;;20.90;66.80;;;;;;5083999;28;20024;-76
2022/04/22 04:58:47;;;;;;;10.60;1.88;;;20.90;66.70;;;;;;5097268;28;20034;-74
2022/04/22 05:01:14;;;;;;;7.22;1.15;;;20.90;66.50;;;;;;5102069;28;20062;-77
2022/04/22 05:03:40;;;;;;;3.58;1.17;;;20.90;66.60;;;;;;5101797;28;20022;-76
2022/04/22 05:06:08;;;;;;;6.10;1.33;;;20.90;66.60;;;;;;5080909;28;20051;-76
2022/04/22 05:08:35;;;;;;;5.63;1.52;;;20.80;66.50;;;;;;5105385;28;20455;-69
2022/04/22 05:11:01;;;;;;;4.50;1.02;;;20.90;66.50;;;;;;5105185;28;20418;-72
2022/04/22 05:13:28;;;;;;;2.13;1.20;;;20.80;66.40;;;;;;5100286;28;20031;-74
2022/04/22 05:15:56;;;;;;;3.40;1.10;;;20.80;66.20;;;;;;5085708;28;20080;-75
2022/04/22 05:18:22;;;;;;;3.05;1.50;;;20.80;66.20;;;;;;5108541;28;20036;-75
2022/04/22 05:20:49;;;;;;;3.38;1.13;;;20.80;66.10;;;;;;5111457;28;20096;-74
2022/04/22 05:23:15;;;;;;;4.03;1.23;;;20.80;66.00;;;;;;5104103;28;20076;-76
2022/04/22 05:25:42;;;;;;;10.15;1.10;;;20.80;65.90;;;;;;5107705;28;20020;-74
2022/04/22 05:28:08;;;;;;;16.85;2.88;;;20.80;65.80;;;;;;5105077;28;20016;-76
2022/04/22 05:33:20;;;;;;;11.05;3.63;;;20.80;66.00;;;;;;5105666;28;20505;-65
2022/04/22 05:35:46;;;;;;;15.57;5.47;;;20.80;66.00;;;;;;5100967;28;20035;-66
2022/04/22 05:38:15;;;;;;;8.55;1.90;;;20.80;66.10;;;;;;5105185;28;20026;-69
2022/04/22 05:40:44;;;;;;;4.80;1.40;;;20.80;66.20;;;;;;5107466;28;20024;-72
2022/04/22 05:43:10;;;;;;;4.55;2.00;;;20.80;66.80;;;;;;5087509;28;20023;-67
2022/04/22 05:45:37;;;;;;;13.02;2.22;;;20.80;66.30;;;;;;5104526;28;20492;-77
2022/04/22 05:48:04;;;;;;;4.47;2.05;;;20.80;66.70;;;;;;5102651;28;20533;-75
2022/04/22 05:50:30;;;;;;;16.67;1.80;;;20.80;67.10;;;;;;5106477;28;20034;-76
2022/04/22 05:52:57;;;;;;;6.53;2.88;;;20.80;66.60;;;;;;5109119;28;20478;-76
2022/04/22 05:55:27;;;;;;;5.38;2.10;;;20.80;66.70;;;;;;5108245;28;20027;-77
2022/04/22 05:57:54;;;;;;;5.57;2.10;;;20.90;67.00;;;;;;5108969;28;20024;-70
2022/04/22 06:00:23;;;;;;;5.30;2.08;;;20.80;66.70;;;;;;5099534;28;20107;-70
2022/04/22 06:02:50;;;;;;;9.00;2.30;;;20.80;66.40;;;;;;5101581;28;21020;-65
2022/04/22 06:05:20;;;;;;;9.65;2.35;;;20.90;66.40;;;;;;5101675;28;20020;-64
2022/04/22 06:07:46;;;;;;;8.25;2.83;;;20.90;66.50;;;;;;5105716;28;20509;-67
2022/04/22 06:10:32;;;;;;;9.15;2.58;;;20.90;66.50;;;;;;5104748;28;20506;-66
2022/04/22 06:12:59;;;;;;;;;;;21.00;66.50;;;;;;5110495;28;20128;-65
2022/04/22 06:15:26;;;;;;;20.50;2.90;;;21.00;66.40;;;;;;5102261;28;20049;-67
2022/04/22 06:17:52;;;;;;;7.47;2.50;;;21.00;66.60;;;;;;5099082;28;20034;-70
2022/04/22 06:20:19;;;;;;;6.93;2.50;;;21.00;66.40;;;;;;5105382;28;20551;-66
2022/04/22 06:22:46;;;;;;;9.18;2.63;;;21.00;66.10;;;;;;5105930;28;20020;-65
2022/04/22 06:25:13;;;;;;;9.10;2.83;;;21.00;66.00;;;;;;5101853;28;20043;-66
2022/04/22 06:27:41;;;;;;;8.85;3.30;;;21.00;66.10;;;;;;5097578;28;20028;-65
2022/04/22 06:30:10;;;;;;;10.63;2.10;;;21.00;66.30;;;;;;5105709;28;20055;-70
2022/04/22 06:32:38;;;;;;;7.35;2.35;;;21.00;66.00;;;;;;5104485;28;20429;-66
2022/04/22 06:35:06;;;;;;;3.80;1.85;;;21.00;65.80;;;;;;5105992;28;20458;-66
2022/04/22 06:37:43;;;;;;;5.10;1.40;;;21.00;65.60;;;;;;5108401;28;20438;-67
2022/04/22 06:45:46;;;;;;;49.38;6.40;;;21.00;65.10;;;;;;5099482;28;20035;-67
2022/04/22 06:48:16;;;;;;;48.30;5.07;;;21.00;65.00;;;;;;5102733;28;20481;-67
2022/04/22 06:50:44;;;;;;;24.17;3.92;;;21.00;65.10;;;;;;5106182;28;20028;-68
2022/04/22 06:53:11;;;;;;;18.70;3.38;;;21.00;64.90;;;;;;5108434;28;20076;-67
2022/04/22 06:55:39;;;;;;;18.85;2.60;;;21.00;65.30;;;;;;5104371;28;20478;-67
2022/04/22 06:58:11;;;;;;;12.30;2.20;;;21.00;65.20;;;;;;5104708;28;20039;-69
2022/04/22 07:00:38;;;;;;;4.47;1.92;;;21.00;65.80;;;;;;5104011;28;20659;-67
2022/04/22 07:03:06;;;;;;;16.15;2.40;;;21.00;66.10;;;;;;5098427;28;20016;-68
2022/04/22 07:05:36;;;;;;;12.02;2.00;;;21.00;65.90;;;;;;5106048;28;20073;-70
2022/04/22 07:08:13;;;;;;;5.57;1.38;;;21.00;66.20;;;;;;5098520;28;20050;-71
2022/04/22 07:10:52;;;;;;;12.18;2.28;;;21.00;66.10;;;;;;5103811;28;20063;-69
2022/04/22 07:13:19;;;;;;;15.77;2.72;;;21.00;66.00;;;;;;5110380;28;20023;-67
2022/04/22 07:15:49;;;;;;;8.80;1.48;;;21.00;65.90;;;;;;5106117;28;20588;-78
2022/04/22 07:18:17;;;;;;;11.15;1.80;;;21.00;65.70;;;;;;5103253;28;20054;-76
2022/04/22 07:20:44;;;;;;;9.60;1.60;;;21.00;65.50;;;;;;5105691;28;20393;-78
2022/04/22 07:23:12;;;;;;;6.90;1.50;;;21.10;65.60;;;;;;5102154;28;20152;-76
2022/04/22 07:25:39;;;;;;;8.15;2.47;;;21.10;65.30;;;;;;5107788;28;20030;-75
2022/04/22 07:28:05;;;;;;;10.52;2.05;;;21.10;65.10;;;;;;5100765;28;20059;-75
2022/04/22 07:30:33;;;;;;;8.90;1.75;;;21.10;64.80;;;;;;5105575;28;20478;-76
2022/04/22 07:32:59;;;;;;;5.95;1.65;;;21.10;64.50;;;;;;5104129;28;20016;-74
2022/04/22 07:35:26;;;;;;;11.45;1.45;;;21.10;64.10;;;;;;5103207;28;20011;-73
2022/04/22 07:37:53;;;;;;;8.80;1.55;;;21.10;63.70;;;;;;5099170;28;20027;-75
2022/04/22 07:40:21;;;;;;;7.53;1.35;;;21.10;63.30;;;;;;5103124;28;20020;-75
2022/04/22 07:48:21;;;;;;;;;;;21.20;62.50;;;;;;5102534;28;20038;-77
2022/04/22 07:50:48;;;;;;;5.50;1.33;;;21.20;62.10;;;;;;5099515;28;19916;-77
2022/04/22 07:53:19;;;;;;;13.95;2.28;;;21.20;61.90;;;;;;5104561;28;20030;-75
2022/04/22 07:55:46;;;;;;;8.73;2.97;;;21.20;61.70;;;;;;5099894;28;20024;-77
2022/04/22 07:58:16;;;;;;;16.30;2.00;;;21.20;62.10;;;;;;5079749;28;20055;-78
2022/04/22 08:00:46;;;;;;;13.02;1.83;;;21.20;62.40;;;;;;5104640;28;20359;-77
2022/04/22 08:03:17;;;;;;;7.43;2.72;;;21.20;62.50;;;;;;5099487;28;20032;-77
2022/04/22 08:05:44;;;;;;;9.20;1.92;;;21.20;62.50;;;;;;5101051;28;20020;-77
2022/04/22 08:08:11;;;;;;;3.58;1.42;;;21.20;62.90;;;;;;5102070;28;20028;-78
2022/04/22 08:10:38;;;;;;;9.30;2.90;;;21.20;62.10;;;;;;5104530;28;20500;-77
2022/04/22 08:13:05;;;;;;;7.13;1.60;;;21.20;62.20;;;;;;5094200;28;20048;-78
2022/04/22 08:15:35;;;;;;;6.55;1.85;;;21.30;62.20;;;;;;5101182;28;20453;-73
2022/04/22 08:18:03;;;;;;;11.60;2.30;;;21.30;61.90;;;;;;5102415;28;20495;-77
2022/04/22 08:20:31;;;;;;;5.57;1.25;;;21.30;61.70;;;;;;5104593;28;20103;-78
2022/04/22 08:23:01;;;;;;;8.43;3.75;;;21.30;61.40;;;;;;5102743;28;20037;-77
2022/04/22 08:25:28;;;;;;;7.53;2.22;;;21.30;61.40;;;;;;5087120;28;20533;-76
2022/04/22 08:27:55;;;;;;;6.00;1.90;;;21.30;61.30;;;;;;5099609;28;20386;-75
2022/04/22 08:30:22;;;;;;;5.90;1.10;;;21.40;61.00;;;;;;5107068;28;20046;-79
2022/04/22 08:32:48;;;;;;;8.95;1.80;;;21.40;61.00;;;;;;5105647;28;20023;-79
2022/04/22 08:35:15;;;;;;;6.88;1.73;;;21.40;60.60;;;;;;5099534;28;20027;-80
2022/04/22 08:37:45;;;;;;;5.25;1.58;;;21.50;59.90;;;;;;5101618;28;20985;-79
2022/04/22 08:40:14;;;;;;;3.55;1.33;;;21.60;59.10;;;;;;5107220;28;20020;-78
2022/04/22 08:42:43;;;;;;;4.95;0.98;;;21.60;58.60;;;;;;5103792;28;20023;-80
2022/04/22 08:45:11;;;;;;;5.03;1.02;;;21.70;57.90;;;;;;5099511;28;20112;-79
2022/04/22 08:50:27;;;;;;;6.13;1.17;;;21.70;57.40;;;;;;5100417;28;20050;-80
2022/04/22 08:53:03;;;;;;;5.43;1.13;;;21.80;56.70;;;;;;5105532;28;20019;-71
2022/04/22 08:55:33;;;;;;;3.65;1.05;;;21.90;55.90;;;;;;5109171;28;20030;-78
2022/04/22 08:58:05;;;;;;;3.30;0.80;;;21.90;55.80;;;;;;5101106;28;20451;-77
2022/04/22 09:00:36;;;;;;;2.25;1.02;;;22.00;55.60;;;;;;5087442;28;20031;-76
2022/04/22 09:03:03;;;;;;;3.70;1.25;;;22.00;55.20;;;;;;5108098;28;20023;-78
2022/04/22 09:05:31;;;;;;;1.95;0.77;;;22.10;54.80;;;;;;5106653;28;20470;-77
2022/04/22 09:07:59;;;;;;;17.52;1.60;;;22.10;54.60;;;;;;5102450;28;20089;-77
2022/04/22 09:10:26;;;;;;;7.50;0.80;;;22.10;54.10;;;;;;5107023;28;20032;-71
2022/04/22 09:12:54;;;;;;;4.43;1.17;;;22.20;53.80;;;;;;5103283;28;20378;-77
2022/04/22 09:15:27;;;;;;;2.25;0.77;;;22.20;53.30;;;;;;5100109;28;20439;-77
2022/04/22 09:18:00;;;;;;;3.28;1.10;;;22.20;53.40;;;;;;5107172;28;20096;-73
2022/04/22 09:20:33;;;;;;;4.32;1.23;;;22.20;53.30;;;;;;5109035;28;20532;-75
2022/04/22 09:23:20;;;;;;;2.92;1.05;;;22.30;52.80;;;;;;5109886;28;20028;-69
2022/04/22 09:25:46;;;;;;;3.70;0.90;;;22.30;52.40;;;;;;5102505;28;20031;-76
2022/04/22 09:28:13;;;;;;;4.88;1.38;;;22.30;52.50;;;;;;5105621;28;20031;-76
2022/04/22 09:30:41;;;;;;;9.30;1.63;;;22.40;52.90;;;;;;5098063;28;20031;-79
2022/04/22 09:33:12;;;;;;;12.48;1.83;;;22.40;52.90;;;;;;5106348;28;20020;-73
2022/04/22 09:43:55;;;;;;;2.95;1.00;;;22.70;53.00;;;;;;5106094;28;20097;-70
2022/04/22 09:46:32;;;;;;;1.40;0.70;;;22.70;52.50;;;;;;5105413;28;20070;-78
2022/04/22 09:48:59;;;;;;;2.38;0.77;;;22.70;52.30;;;;;;5100280;28;20028;-78
2022/04/22 09:51:31;;;;;;;4.05;0.70;;;22.70;52.50;;;;;;5106423;28;20032;-77
2022/04/22 09:54:14;;;;;;;3.50;0.40;;;22.80;52.90;;;;;;5102969;28;20449;-76
2022/04/22 09:56:55;;;;;;;1.70;0.60;;;22.80;52.90;;;;;;5106296;28;20050;-72
2022/04/22 09:59:24;;;;;;;1.75;0.60;;;22.90;52.20;;;;;;5104001;28;20061;-69
2022/04/22 10:01:51;;;;;;;3.13;0.93;;;22.90;51.80;;;;;;5107892;28;20035;-76
2022/04/22 10:04:21;;;;;;;4.05;0.60;;;22.90;51.90;;;;;;5107370;28;20012;-72
2022/04/22 10:06:49;;;;;;;0.60;0.55;;;23.00;52.00;;;;;;5100870;28;20027;-78
2022/04/22 10:09:16;;;;;;;2.33;0.50;;;23.00;51.90;;;;;;5104997;28;20016;-78
2022/04/22 10:11:45;;;;;;;5.97;0.50;;;23.00;51.50;;;;;;5104359;28;20024;-74
2022/04/22 10:14:13;;;;;;;3.08;0.90;;;23.10;51.30;;;;;;5109724;28;20027;-77
2022/04/22 10:16:39;;;;;;;2.78;0.80;;;23.10;51.70;;;;;;5100326;28;20015;-73
2022/04/22 10:19:07;;;;;;;2.65;0.63;;;23.10;51.00;;;;;;5104559;28;20028;-73
2022/04/22 10:21:34;;;;;;;3.13;0.73;;;23.10;51.00;;;;;;5107046;28;20047;-78
2022/04/22 10:24:01;;;;;;;2.45;0.57;;;23.20;51.40;;;;;;5107258;28;20020;-72
2022/04/22 10:26:28;;;;;;;3.72;0.77;;;23.20;51.40;;;;;;5105165;28;20023;-74
2022/04/22 10:28:56;;;;;;;2.30;0.90;;;23.20;50.60;;;;;;5103296;28;20030;-74
2022/04/22 10:31:24;;;;;;;4.60;0.85;;;23.30;50.50;;;;;;5101284;28;20061;-72
2022/04/22 10:33:50;;;;;;;12.93;1.17;;;23.30;50.60;;;;;;5107515;28;20012;-68
2022/04/22 10:36:19;;;;;;;2.65;0.88;;;23.30;50.10;;;;;;5103725;28;20027;-77
2022/04/22 10:38:50;;;;;;;6.72;0.63;;;23.30;50.00;;;;;;5099398;28;20028;-70
2022/04/22 10:41:23;;;;;;;6.05;1.25;;;23.40;49.90;;;;;;5108510;28;20474;-71
2022/04/22 10:47:14;;;;;;;6.72;1.15;;;23.40;49.60;;;;;;5104069;28;20081;-74
2022/04/22 10:49:50;;;;;;;2.60;1.15;;;23.50;49.90;;;;;;5102918;28;20493;-71
2022/04/22 10:52:21;;;;;;;2.97;0.73;;;23.50;49.20;;;;;;5103121;28;20012;-77
2022/04/22 10:54:54;;;;;;;8.70;1.10;;;23.60;48.80;;;;;;5107846;28;20019;-72
2022/04/22 10:57:25;;;;;;;4.82;0.57;;;23.60;48.60;;;;;;5100563;28;20020;-75
2022/04/22 11:00:18;;;;;;;4.38;1.42;;;23.60;48.50;;;;;;5102250;28;20077;-71
2022/04/22 11:02:46;;;;;;;2.60;0.60;;;23.70;47.40;;;;;;5094242;28;20364;-72
2022/04/22 11:05:19;;;;;;;5.82;0.90;;;23.70;47.20;;;;;;5104411;28;20017;-73
2022/04/22 11:07:51;;;;;;;2.58;0.43;;;23.80;47.30;;;;;;5099228;28;20027;-73
2022/04/22 11:10:18;;;;;;;0.82;0.70;;;23.80;47.60;;;;;;5103800;28;20371;-70
2022/04/22 11:12:56;;;;;;;1.25;0.80;;;23.80;47.50;;;;;;5083069;28;20432;-73
2022/04/22 11:15:47;;;;;;;4.50;0.90;;;23.80;47.60;;;;;;5105642;28;20406;-73
2022/04/22 11:18:18;;;;;;;7.25;1.00;;;23.80;47.70;;;;;;5098570;28;20050;-77
2022/04/22 11:20:58;;;;;;;4.72;1.23;;;23.80;47.60;;;;;;5109444;28;20047;-72
2022/04/22 11:23:33;;;;;;;7.78;1.50;;;23.90;47.80;;;;;;5105580;28;20102;-74
2022/04/22 11:26:00;;;;;;;2.25;1.10;;;23.90;47.90;;;;;;5101664;28;20050;-72
2022/04/22 11:28:28;;;;;;;4.95;0.90;;;23.90;48.10;;;;;;5106953;28;21004;-77
2022/04/22 11:30:56;;;;;;;30.90;2.58;;;23.90;47.90;;;;;;5103632;28;20020;-72
2022/04/22 11:33:30;;;;;;;4.85;0.80;;;24.00;48.00;;;;;;5087207;28;20105;-71
2022/04/22 11:35:57;;;;;;;2.80;1.30;;;24.00;48.30;;;;;;5084420;28;20111;-73
2022/04/22 11:38:24;;;;;;;2.67;0.73;;;24.00;48.50;;;;;;5101417;28;20013;-75
2022/04/22 11:40:50;;;;;;;3.67;0.70;;;24.10;48.80;;;;;;5106398;28;20024;-74
2022/04/22 11:43:27;;;;;;;6.78;2.00;;;24.10;49.40;;;;;;5106988;28;20099;-74
2022/04/22 11:45:54;;;;;;;4.22;0.73;;;24.10;48.60;;;;;;5105014;28;20024;-76
2022/04/22 11:48:21;;;;;;;5.13;1.08;;;24.10;48.30;;;;;;5075723;28;20390;-76
2022/04/22 11:50:48;;;;;;;2.47;0.63;;;24.20;48.60;;;;;;5105945;28;20057;-71
2022/04/22 11:53:19;;;;;;;1.17;0.40;;;24.20;48.60;;;;;;5102011;28;20066;-73
2022/04/22 11:55:47;;;;;;;2.25;0.63;;;24.20;48.60;;;;;;5108382;28;20024;-69
2022/04/22 11:58:21;;;;;;;1.20;0.50;;;24.20;48.90;;;;;;5098635;28;20100;-70
2022/04/22 12:06:19;;;;;;;5.53;0.70;;;24.30;49.20;;;;;;5102608;28;20061;-70
2022/04/22 12:08:56;;;;;;;4.30;1.05;;;24.40;48.70;;;;;;5103471;28;20424;-70
2022/04/22 12:11:24;;;;;;;5.13;1.00;;;24.30;48.50;;;;;;5096450;28;20093;-74
2022/04/22 12:13:52;;;;;;;2.35;0.63;;;24.30;49.20;;;;;;5106089;28;20020;-72
2022/04/22 12:16:27;;;;;;;6.35;1.40;;;24.30;48.50;;;;;;5094955;28;20107;-75
2022/04/22 12:18:55;;;;;;;4.82;0.95;;;24.40;48.70;;;;;;5104189;28;20024;-68
2022/04/22 12:21:23;;;;;;;2.63;1.20;;;24.40;48.90;;;;;;5100543;28;20127;-75
2022/04/22 12:24:02;;;;;;;4.13;1.10;;;24.40;49.10;;;;;;5099988;28;20021;-73
2022/04/22 12:26:36;;;;;;;4.03;0.90;;;24.40;49.20;;;;;;5106677;28;20552;-76
2022/04/22 12:29:14;;;;;;;2.25;0.45;;;24.40;49.20;;;;;;5102357;28;20035;-67
2022/04/22 12:31:42;;;;;;;2.88;0.73;;;24.40;49.50;;;;;;5104423;28;20032;-75
2022/04/22 12:34:13;;;;;;;6.90;1.75;;;24.40;49.80;;;;;;5099779;28;20012;-69
2022/04/22 12:36:58;;;;;;;5.53;1.10;;;24.40;50.90;;;;;;5089852;28;20034;-78
2022/04/22 12:39:42;;;;;;;7.75;1.50;;;24.40;51.50;;;;;;5101687;28;20486;-73
2022/04/22 12:42:18;;;;;;;7.53;1.30;;;24.40;52.10;;;;;;5109158;28;20531;-74
2022/04/22 12:53:37;;;;;;;8.00;1.33;;;24.40;52.40;;;;;;5021789;28;20056;-74
2022/04/22 12:56:05;;;;;;;9.73;2.08;;;24.40;52.90;;;;;;5025745;28;20022;-72
2022/04/22 12:58:32;;;;;;;9.02;1.23;;;24.40;53.20;;;;;;5060048;28;20028;-67
2022/04/22 13:01:02;;;;;;;16.30;2.38;;;24.40;53.60;;;;;;5111897;28;20402;-76
2022/04/22 13:03:38;;;;;;;16.30;2.75;;;24.40;54.30;;;;;;5106355;28;20019;-71
2022/04/22 13:06:05;;;;;;;24.48;2.10;;;24.40;55.30;;;;;;5104724;28;20024;-77
2022/04/22 13:08:31;;;;;;;14.50;2.15;;;24.30;55.60;;;;;;5094935;28;20020;-67
2022/04/22 13:10:59;;;;;;;10.13;2.33;;;24.30;55.50;;;;;;5107028;28;20027;-69
2022/04/22 13:13:27;;;;;;;6.43;1.48;;;24.30;54.80;;;;;;5111182;28;20024;-72
2022/04/22 13:15:54;;;;;;;6.63;1.67;;;24.20;54.50;;;;;;5101430;28;20046;-72
2022/04/22 13:18:20;;;;;;;7.40;2.63;;;24.20;54.30;;;;;;5107465;28;20485;-77
2022/04/22 13:20:47;;;;;;;11.43;1.92;;;24.10;54.00;;;;;;5089494;28;20040;-73
2022/04/22 13:23:13;;;;;;;11.05;1.95;;;24.10;54.10;;;;;;5099005;28;20055;-77
2022/04/22 13:25:40;;;;;;;8.98;1.70;;;24.10;54.00;;;;;;5108695;28;20023;-68
2022/04/22 13:28:07;;;;;;;10.13;2.97;;;24.00;53.70;;;;;;5105216;28;20035;-75
2022/04/22 13:30:33;;;;;;;9.27;2.33;;;24.00;53.60;;;;;;5102088;28;20036;-76
2022/04/22 13:33:00;;;;;;;9.65;2.25;;;24.00;53.50;;;;;;5100681;28;20566;-78
2022/04/22 13:35:27;;;;;;;9.40;1.95;;;23.90;53.60;;;;;;5104176;28;20024;-75
2022/04/22 13:37:54;;;;;;;12.95;2.75;;;24.00;53.50;;;;;;5101007;28;20386;-74
2022/04/22 13:40:20;;;;;;;13.35;2.53;;;23.90;53.10;;;;;;5101015;28;20020;-69
2022/04/22 13:42:48;;;;;;;6.90;2.45;;;23.90;52.80;;;;;;5105004;28;20024;-78
2022/04/22 13:53:33;;;;;;;6.57;2.47;;;23.80;52.60;;;;;;5104234;28;20031;-77
2022/04/22 13:56:00;;;;;;;12.63;2.20;;;23.80;52.40;;;;;;5109490;28;20031;-74
2022/04/22 13:58:27;;;;;;;6.18;2.40;;;23.70;52.00;;;;;;5108440;28;20024;-75
2022/04/22 14:00:54;;;;;;;9.00;2.88;;;23.70;51.90;;;;;;5102113;28;20039;-77
2022/04/22 14:03:20;;;;;;;8.55;2.47;;;23.70;51.70;;;;;;5108281;28;20391;-77
2022/04/22 14:05:47;;;;;;;15.27;3.78;;;23.60;51.60;;;;;;5102271;28;20493;-78
2022/04/22 16:21:17;;;;;;;11.55;4.68;;;21.00;55.10;;;;;;5072025;28;20404;-75